createdAt,value
2024-01-20T00:03:49.184Z,110.68
2024-01-20T00:18:55.045Z,110.46
2024-01-20T00:34:00.720Z,110.49
2024-01-20T00:49:06.390Z,110.55
2024-01-20T01:04:11.920Z,110.38
2024-01-20T01:19:17.551Z,110.36
2024-01-20T09:45:07.392Z,98.34
2024-01-20T10:00:17.566Z,95.20
2024-01-20T10:15:30.989Z,92.42
2024-01-20T10:30:40.633Z,90.09
2024-01-20T10:45:55.998Z,87.55
2024-01-20T11:01:02.629Z,87.12
2024-01-20T11:16:09.072Z,86.93
2024-01-20T11:31:23.573Z,86.54
2024-01-20T11:46:29.475Z,86.24
2024-01-20T12:01:35.442Z,84.71
2024-01-20T12:16:41.363Z,84.26
2024-01-20T12:31:46.768Z,83.05
2024-01-20T12:46:52.566Z,83.27
2024-01-20T13:01:58.133Z,85.25
2024-01-20T13:17:04.151Z,86.13
2024-01-20T13:32:10.414Z,88.99
2024-01-20T13:47:16.217Z,89.79
2024-01-20T14:02:22.009Z,89.29
2024-01-20T14:17:28.692Z,89.40
2024-01-20T14:32:34.486Z,88.24
2024-01-20T14:47:40.436Z,88.44
2024-01-20T15:02:46.313Z,83.26
2024-01-20T15:17:52.200Z,69.84
2024-01-20T15:32:58.213Z,73.26
2024-01-20T15:48:04.102Z,93.15
2024-01-20T16:03:10.682Z,95.76
2024-01-20T16:18:18.497Z,96.49
2024-01-20T16:33:24.741Z,96.62
2024-01-20T16:48:31.028Z,97.20
2024-01-20T17:03:36.667Z,96.81
2024-01-20T17:18:42.685Z,97.25
2024-01-20T17:33:49.411Z,97.74
2024-01-20T17:48:55.711Z,99.07
2024-01-20T18:04:01.646Z,101.65
2024-01-20T18:19:07.790Z,100.97
2024-01-20T18:34:13.618Z,104.03
2024-01-20T18:49:19.821Z,102.70
2024-01-20T19:04:25.992Z,103.23
2024-01-20T19:19:32.857Z,101.18
2024-01-20T19:34:38.843Z,102.73
2024-01-20T19:49:45.656Z,101.58
2024-01-20T20:04:51.628Z,103.29
2024-01-20T20:19:58.009Z,100.00
2024-01-20T20:35:03.637Z,99.74
2024-01-20T20:50:09.754Z,98.45
2024-01-20T21:05:17.690Z,98.36
2024-01-20T21:20:23.453Z,98.71
2024-01-20T21:35:29.249Z,103.20
2024-01-20T21:50:35.051Z,98.93
2024-01-20T22:05:41.350Z,98.39
2024-01-20T22:20:47.196Z,98.15
2024-01-20T22:35:52.855Z,103.46
2024-01-20T22:50:58.665Z,103.60
2024-01-20T23:06:04.302Z,101.00
2024-01-20T23:21:10.032Z,100.19
2024-01-20T23:36:15.763Z,98.81
2024-01-20T23:51:21.243Z,98.76
